sensor_id;sensor_type;location;lat;lon;timestamp;P1;durP1;ratioP1;P2;durP2;ratioP2
23159;SDS011;11748;50.844;4.396;2023-08-12T00:01:09;7.25;;;3.00;;
23159;SDS011;11748;50.844;4.396;2023-08-12T00:03:35;5.82;;;3.17;;
23159;SDS011;11748;50.844;4.396;2023-08-12T00:06:01;7.60;;;3.40;;
23159;SDS011;11748;50.844;4.396;2023-08-12T00:08:30;9.57;;;3.83;;
23159;SDS011;11748;50.844;4.396;2023-08-12T00:10:56;6.80;;;3.35;;
23159;SDS011;11748;50.844;4.396;2023-08-12T00:13:22;7.70;;;3.85;;
23159;SDS011;11748;50.844;4.396;2023-08-12T00:15:48;10.02;;;3.20;;
23159;SDS011;11748;50.844;4.396;2023-08-12T00:18:13;6.05;;;3.40;;
23159;SDS011;11748;50.844;4.396;2023-08-12T00:20:40;9.63;;;3.55;;
23159;SDS011;11748;50.844;4.396;2023-08-12T00:23:07;8.57;;;3.40;;
23159;SDS011;11748;50.844;4.396;2023-08-12T00:25:33;6.18;;;3.13;;
23159;SDS011;11748;50.844;4.396;2023-08-12T00:27:59;6.95;;;3.20;;
23159;SDS011;11748;50.844;4.396;2023-08-12T00:30:25;7.57;;;3.50;;
23159;SDS011;11748;50.844;4.396;2023-08-12T00:32:51;10.48;;;4.30;;
23159;SDS011;11748;50.844;4.396;2023-08-12T00:35:17;7.72;;;3.45;;
23159;SDS011;11748;50.844;4.396;2023-08-12T00:37:42;8.60;;;3.90;;
23159;SDS011;11748;50.844;4.396;2023-08-12T00:40:08;6.47;;;3.58;;
23159;SDS011;11748;50.844;4.396;2023-08-12T00:42:35;10.23;;;3.75;;
23159;SDS011;11748;50.844;4.396;2023-08-12T00:45:00;7.45;;;3.70;;
23159;SDS011;11748;50.844;4.396;2023-08-12T00:47:27;6.18;;;3.63;;
23159;SDS011;11748;50.844;4.396;2023-08-12T00:49:54;8.43;;;4.10;;
23159;SDS011;11748;50.844;4.396;2023-08-12T00:52:22;8.43;;;3.88;;
23159;SDS011;11748;50.844;4.396;2023-08-12T00:54:48;8.25;;;3.55;;
23159;SDS011;11748;50.844;4.396;2023-08-12T00:57:14;8.73;;;3.83;;
23159;SDS011;11748;50.844;4.396;2023-08-12T00:59:40;6.80;;;3.72;;
23159;SDS011;11748;50.844;4.396;2023-08-12T01:02:09;7.78;;;4.35;;
23159;SDS011;11748;50.844;4.396;2023-08-12T01:04:35;9.15;;;3.72;;
23159;SDS011;11748;50.844;4.396;2023-08-12T01:07:01;7.45;;;3.88;;
23159;SDS011;11748;50.844;4.396;2023-08-12T01:09:28;11.93;;;3.75;;
23159;SDS011;11748;50.844;4.396;2023-08-12T01:17:22;7.47;;;3.63;;
23159;SDS011;11748;50.844;4.396;2023-08-12T01:19:48;10.05;;;4.07;;
23159;SDS011;11748;50.844;4.396;2023-08-12T01:22:16;9.45;;;3.75;;
23159;SDS011;11748;50.844;4.396;2023-08-12T01:24:45;8.00;;;4.13;;
23159;SDS011;11748;50.844;4.396;2023-08-12T01:27:12;9.80;;;4.00;;
23159;SDS011;11748;50.844;4.396;2023-08-12T01:29:40;8.57;;;4.50;;
23159;SDS011;11748;50.844;4.396;2023-08-12T01:32:30;12.52;;;3.72;;
23159;SDS011;11748;50.844;4.396;2023-08-12T01:37:32;9.07;;;4.07;;
23159;SDS011;11748;50.844;4.396;2023-08-12T01:40:00;10.48;;;4.13;;
23159;SDS011;11748;50.844;4.396;2023-08-12T01:42:29;6.43;;;3.58;;
23159;SDS011;11748;50.844;4.396;2023-08-12T01:44:58;8.73;;;4.03;;
23159;SDS011;11748;50.844;4.396;2023-08-12T01:47:25;6.93;;;3.90;;
23159;SDS011;11748;50.844;4.396;2023-08-12T01:52:21;7.68;;;4.43;;
23159;SDS011;11748;50.844;4.396;2023-08-12T01:54:48;11.02;;;3.97;;
23159;SDS011;11748;50.844;4.396;2023-08-12T01:57:14;11.07;;;4.15;;
23159;SDS011;11748;50.844;4.396;2023-08-12T02:02:09;9.73;;;3.95;;
23159;SDS011;11748;50.844;4.396;2023-08-12T02:04:35;10.45;;;4.38;;
23159;SDS011;11748;50.844;4.396;2023-08-12T02:07:03;8.27;;;4.60;;
23159;SDS011;11748;50.844;4.396;2023-08-12T02:09:30;7.75;;;3.85;;
23159;SDS011;11748;50.844;4.396;2023-08-12T02:11:56;6.72;;;4.38;;
23159;SDS011;11748;50.844;4.396;2023-08-12T02:14:23;8.55;;;4.40;;
23159;SDS011;11748;50.844;4.396;2023-08-12T02:16:50;9.25;;;4.32;;
23159;SDS011;11748;50.844;4.396;2023-08-12T02:19:16;11.00;;;4.88;;
23159;SDS011;11748;50.844;4.396;2023-08-12T02:21:44;10.55;;;5.00;;
23159;SDS011;11748;50.844;4.396;2023-08-12T02:24:10;9.07;;;4.57;;
23159;SDS011;11748;50.844;4.396;2023-08-12T02:26:36;12.35;;;5.28;;
23159;SDS011;11748;50.844;4.396;2023-08-12T02:29:02;9.38;;;5.13;;
23159;SDS011;11748;50.844;4.396;2023-08-12T02:31:28;11.82;;;5.00;;
23159;SDS011;11748;50.844;4.396;2023-08-12T02:33:54;9.82;;;5.28;;
23159;SDS011;11748;50.844;4.396;2023-08-12T02:36:20;13.98;;;5.68;;
23159;SDS011;11748;50.844;4.396;2023-08-12T02:38:45;12.38;;;6.20;;
23159;SDS011;11748;50.844;4.396;2023-08-12T02:41:11;12.98;;;5.35;;
23159;SDS011;11748;50.844;4.396;2023-08-12T02:43:38;7.40;;;4.82;;
23159;SDS011;11748;50.844;4.396;2023-08-12T02:46:04;11.57;;;5.18;;
23159;SDS011;11748;50.844;4.396;2023-08-12T02:48:29;14.73;;;5.40;;
23159;SDS011;11748;50.844;4.396;2023-08-12T02:50:55;9.10;;;5.25;;
23159;SDS011;11748;50.844;4.396;2023-08-12T02:53:20;9.85;;;5.53;;
23159;SDS011;11748;50.844;4.396;2023-08-12T02:55:46;10.20;;;5.40;;
23159;SDS011;11748;50.844;4.396;2023-08-12T02:58:12;7.72;;;5.43;;
23159;SDS011;11748;50.844;4.396;2023-08-12T03:00:40;8.65;;;5.22;;
23159;SDS011;11748;50.844;4.396;2023-08-12T03:03:09;15.23;;;6.18;;
23159;SDS011;11748;50.844;4.396;2023-08-12T03:05:34;10.73;;;5.40;;
23159;SDS011;11748;50.844;4.396;2023-08-12T03:08:01;10.40;;;6.07;;
23159;SDS011;11748;50.844;4.396;2023-08-12T03:10:29;11.43;;;5.80;;
23159;SDS011;11748;50.844;4.396;2023-08-12T03:12:55;11.25;;;5.95;;
23159;SDS011;11748;50.844;4.396;2023-08-12T03:15:21;9.18;;;5.78;;
23159;SDS011;11748;50.844;4.396;2023-08-12T03:17:47;10.02;;;6.03;;
23159;SDS011;11748;50.844;4.396;2023-08-12T03:20:13;13.43;;;6.38;;
23159;SDS011;11748;50.844;4.396;2023-08-12T03:22:44;11.70;;;7.15;;
23159;SDS011;11748;50.844;4.396;2023-08-12T03:25:11;15.30;;;7.25;;
23159;SDS011;11748;50.844;4.396;2023-08-12T03:27:39;14.27;;;7.72;;
23159;SDS011;11748;50.844;4.396;2023-08-12T03:30:05;16.23;;;8.10;;
23159;SDS011;11748;50.844;4.396;2023-08-12T03:32:33;16.35;;;7.78;;
23159;SDS011;11748;50.844;4.396;2023-08-12T03:34:59;13.27;;;8.18;;
23159;SDS011;11748;50.844;4.396;2023-08-12T03:37:25;14.25;;;8.23;;
23159;SDS011;11748;50.844;4.396;2023-08-12T03:39:51;16.27;;;8.35;;
23159;SDS011;11748;50.844;4.396;2023-08-12T03:42:17;21.08;;;9.18;;
23159;SDS011;11748;50.844;4.396;2023-08-12T03:44:46;13.77;;;8.00;;
23159;SDS011;11748;50.844;4.396;2023-08-12T03:47:11;15.45;;;9.10;;
23159;SDS011;11748;50.844;4.396;2023-08-12T03:49:37;13.70;;;7.85;;
23159;SDS011;11748;50.844;4.396;2023-08-12T03:52:03;10.82;;;6.63;;
23159;SDS011;11748;50.844;4.396;2023-08-12T03:54:32;11.30;;;6.85;;
23159;SDS011;11748;50.844;4.396;2023-08-12T03:56:58;10.43;;;5.95;;
23159;SDS011;11748;50.844;4.396;2023-08-12T03:59:23;10.30;;;5.65;;
23159;SDS011;11748;50.844;4.396;2023-08-12T04:01:49;7.65;;;5.97;;
23159;SDS011;11748;50.844;4.396;2023-08-12T04:04:15;9.35;;;6.20;;
23159;SDS011;11748;50.844;4.396;2023-08-12T04:06:41;7.07;;;5.68;;
23159;SDS011;11748;50.844;4.396;2023-08-12T04:09:08;8.50;;;6.22;;
23159;SDS011;11748;50.844;4.396;2023-08-12T04:11:34;7.50;;;5.65;;
23159;SDS011;11748;50.844;4.396;2023-08-12T04:14:00;6.55;;;5.55;;
23159;SDS011;11748;50.844;4.396;2023-08-12T04:16:26;7.28;;;5.55;;
23159;SDS011;11748;50.844;4.396;2023-08-12T04:18:51;7.10;;;5.65;;
23159;SDS011;11748;50.844;4.396;2023-08-12T04:21:17;8.02;;;5.88;;
23159;SDS011;11748;50.844;4.396;2023-08-12T04:23:43;7.10;;;5.80;;
23159;SDS011;11748;50.844;4.396;2023-08-12T04:26:10;9.35;;;5.60;;
23159;SDS011;11748;50.844;4.396;2023-08-12T04:28:36;8.85;;;5.60;;
23159;SDS011;11748;50.844;4.396;2023-08-12T04:31:05;6.63;;;5.68;;
23159;SDS011;11748;50.844;4.396;2023-08-12T04:33:32;5.65;;;5.07;;
23159;SDS011;11748;50.844;4.396;2023-08-12T04:35:59;5.75;;;5.15;;
23159;SDS011;11748;50.844;4.396;2023-08-12T04:38:25;7.43;;;5.15;;
23159;SDS011;11748;50.844;4.396;2023-08-12T04:40:52;6.45;;;4.82;;
23159;SDS011;11748;50.844;4.396;2023-08-12T04:43:19;5.97;;;5.20;;
23159;SDS011;11748;50.844;4.396;2023-08-12T04:45:46;4.70;;;4.15;;
23159;SDS011;11748;50.844;4.396;2023-08-12T04:48:12;4.25;;;3.85;;
23159;SDS011;11748;50.844;4.396;2023-08-12T04:50:38;4.88;;;4.45;;
23159;SDS011;11748;50.844;4.396;2023-08-12T04:53:04;5.28;;;4.35;;
23159;SDS011;11748;50.844;4.396;2023-08-12T04:55:30;5.05;;;3.90;;
23159;SDS011;11748;50.844;4.396;2023-08-12T04:57:57;4.43;;;4.03;;
23159;SDS011;11748;50.844;4.396;2023-08-12T05:00:23;4.63;;;4.13;;
23159;SDS011;11748;50.844;4.396;2023-08-12T05:02:50;4.38;;;3.95;;
23159;SDS011;11748;50.844;4.396;2023-08-12T05:05:16;6.45;;;4.15;;
23159;SDS011;11748;50.844;4.396;2023-08-12T05:07:44;5.55;;;5.00;;
23159;SDS011;11748;50.844;4.396;2023-08-12T05:10:13;6.00;;;5.40;;
23159;SDS011;11748;50.844;4.396;2023-08-12T05:12:43;6.55;;;5.82;;
23159;SDS011;11748;50.844;4.396;2023-08-12T05:15:09;8.88;;;6.72;;
23159;SDS011;11748;50.844;4.396;2023-08-12T05:17:35;7.47;;;6.57;;
23159;SDS011;11748;50.844;4.396;2023-08-12T05:20:01;8.05;;;7.03;;
23159;SDS011;11748;50.844;4.396;2023-08-12T05:22:28;8.90;;;7.55;;
23159;SDS011;11748;50.844;4.396;2023-08-12T05:24:54;9.18;;;7.57;;
23159;SDS011;11748;50.844;4.396;2023-08-12T05:27:19;10.32;;;7.90;;
23159;SDS011;11748;50.844;4.396;2023-08-12T05:29:45;8.65;;;7.75;;
23159;SDS011;11748;50.844;4.396;2023-08-12T05:32:11;8.77;;;7.88;;
23159;SDS011;11748;50.844;4.396;2023-08-12T05:34:36;9.20;;;7.45;;
23159;SDS011;11748;50.844;4.396;2023-08-12T05:37:02;9.32;;;8.13;;
23159;SDS011;11748;50.844;4.396;2023-08-12T05:39:28;11.90;;;7.97;;
23159;SDS011;11748;50.844;4.396;2023-08-12T05:41:53;8.65;;;7.72;;
23159;SDS011;11748;50.844;4.396;2023-08-12T05:44:19;9.10;;;7.95;;
23159;SDS011;11748;50.844;4.396;2023-08-12T05:46:46;8.07;;;7.28;;
23159;SDS011;11748;50.844;4.396;2023-08-12T05:49:11;9.40;;;7.35;;
23159;SDS011;11748;50.844;4.396;2023-08-12T05:51:37;7.95;;;6.78;;
23159;SDS011;11748;50.844;4.396;2023-08-12T05:54:03;9.65;;;7.55;;
23159;SDS011;11748;50.844;4.396;2023-08-12T05:56:29;7.95;;;7.15;;
23159;SDS011;11748;50.844;4.396;2023-08-12T05:58:55;10.18;;;7.82;;
23159;SDS011;11748;50.844;4.396;2023-08-12T06:01:21;8.75;;;7.80;;
23159;SDS011;11748;50.844;4.396;2023-08-12T06:03:47;10.10;;;8.25;;
23159;SDS011;11748;50.844;4.396;2023-08-12T06:06:12;10.73;;;8.70;;
23159;SDS011;11748;50.844;4.396;2023-08-12T06:08:38;10.63;;;9.52;;
23159;SDS011;11748;50.844;4.396;2023-08-12T06:11:04;10.25;;;9.25;;
23159;SDS011;11748;50.844;4.396;2023-08-12T06:13:29;13.52;;;9.77;;
23159;SDS011;11748;50.844;4.396;2023-08-12T06:15:55;10.90;;;9.40;;
23159;SDS011;11748;50.844;4.396;2023-08-12T06:18:22;10.57;;;9.43;;
23159;SDS011;11748;50.844;4.396;2023-08-12T06:20:48;11.95;;;9.88;;
23159;SDS011;11748;50.844;4.396;2023-08-12T06:23:15;11.35;;;10.02;;
23159;SDS011;11748;50.844;4.396;2023-08-12T06:25:41;12.73;;;9.50;;
23159;SDS011;11748;50.844;4.396;2023-08-12T06:28:08;11.07;;;10.00;;
23159;SDS011;11748;50.844;4.396;2023-08-12T06:30:35;13.98;;;10.23;;
23159;SDS011;11748;50.844;4.396;2023-08-12T06:33:01;11.30;;;9.43;;
23159;SDS011;11748;50.844;4.396;2023-08-12T06:35:26;10.05;;;9.02;;
23159;SDS011;11748;50.844;4.396;2023-08-12T06:37:52;12.55;;;9.77;;
23159;SDS011;11748;50.844;4.396;2023-08-12T06:40:18;10.77;;;8.98;;
23159;SDS011;11748;50.844;4.396;2023-08-12T06:42:44;11.00;;;8.60;;
23159;SDS011;11748;50.844;4.396;2023-08-12T06:45:10;10.77;;;9.20;;
23159;SDS011;11748;50.844;4.396;2023-08-12T06:47:36;8.77;;;7.85;;
23159;SDS011;11748;50.844;4.396;2023-08-12T06:50:02;8.73;;;7.82;;
23159;SDS011;11748;50.844;4.396;2023-08-12T06:52:28;9.07;;;6.82;;
23159;SDS011;11748;50.844;4.396;2023-08-12T06:54:53;8.38;;;6.97;;
23159;SDS011;11748;50.844;4.396;2023-08-12T06:57:19;8.43;;;6.90;;
23159;SDS011;11748;50.844;4.396;2023-08-12T06:59:45;7.43;;;6.72;;
23159;SDS011;11748;50.844;4.396;2023-08-12T07:02:11;7.65;;;6.95;;
23159;SDS011;11748;50.844;4.396;2023-08-12T07:04:37;7.05;;;6.32;;
23159;SDS011;11748;50.844;4.396;2023-08-12T07:07:03;6.88;;;6.28;;
23159;SDS011;11748;50.844;4.396;2023-08-12T07:09:30;6.93;;;6.22;;
23159;SDS011;11748;50.844;4.396;2023-08-12T07:11:56;6.93;;;5.57;;
23159;SDS011;11748;50.844;4.396;2023-08-12T07:14:22;5.80;;;5.10;;
23159;SDS011;11748;50.844;4.396;2023-08-12T07:16:47;7.25;;;6.55;;
23159;SDS011;11748;50.844;4.396;2023-08-12T07:19:13;9.20;;;7.60;;
23159;SDS011;11748;50.844;4.396;2023-08-12T07:21:40;9.93;;;8.98;;
23159;SDS011;11748;50.844;4.396;2023-08-12T07:24:05;9.80;;;8.90;;
23159;SDS011;11748;50.844;4.396;2023-08-12T07:26:31;10.68;;;9.60;;
23159;SDS011;11748;50.844;4.396;2023-08-12T07:28:57;11.77;;;10.65;;
23159;SDS011;11748;50.844;4.396;2023-08-12T07:31:23;14.07;;;12.73;;
23159;SDS011;11748;50.844;4.396;2023-08-12T07:33:48;16.17;;;14.48;;
23159;SDS011;11748;50.844;4.396;2023-08-12T07:36:15;17.63;;;15.93;;
23159;SDS011;11748;50.844;4.396;2023-08-12T07:38:41;18.15;;;16.38;;
23159;SDS011;11748;50.844;4.396;2023-08-12T07:41:06;19.15;;;17.35;;
23159;SDS011;11748;50.844;4.396;2023-08-12T07:43:32;18.75;;;17.00;;
23159;SDS011;11748;50.844;4.396;2023-08-12T07:45:59;19.02;;;16.65;;
23159;SDS011;11748;50.844;4.396;2023-08-12T07:48:24;17.52;;;15.82;;
23159;SDS011;11748;50.844;4.396;2023-08-12T07:50:57;16.13;;;14.65;;
23159;SDS011;11748;50.844;4.396;2023-08-12T07:53:23;12.25;;;11.07;;
23159;SDS011;11748;50.844;4.396;2023-08-12T07:55:49;11.60;;;10.15;;
23159;SDS011;11748;50.844;4.396;2023-08-12T07:58:15;11.57;;;10.48;;
23159;SDS011;11748;50.844;4.396;2023-08-12T08:00:41;11.20;;;10.23;;
23159;SDS011;11748;50.844;4.396;2023-08-12T08:03:06;10.88;;;9.88;;
23159;SDS011;11748;50.844;4.396;2023-08-12T08:05:32;11.48;;;10.45;;
23159;SDS011;11748;50.844;4.396;2023-08-12T08:07:59;11.93;;;10.80;;
23159;SDS011;11748;50.844;4.396;2023-08-12T08:10:25;11.80;;;10.60;;
23159;SDS011;11748;50.844;4.396;2023-08-12T08:12:50;11.75;;;10.65;;
23159;SDS011;11748;50.844;4.396;2023-08-12T08:15:16;12.30;;;11.20;;
23159;SDS011;11748;50.844;4.396;2023-08-12T08:17:42;11.50;;;10.38;;
23159;SDS011;11748;50.844;4.396;2023-08-12T08:20:08;12.07;;;10.98;;
23159;SDS011;11748;50.844;4.396;2023-08-12T08:22:35;10.25;;;8.82;;
23159;SDS011;11748;50.844;4.396;2023-08-12T08:25:01;8.30;;;7.43;;
23159;SDS011;11748;50.844;4.396;2023-08-12T08:27:27;7.95;;;6.35;;
23159;SDS011;11748;50.844;4.396;2023-08-12T08:29:53;6.72;;;6.13;;
23159;SDS011;11748;50.844;4.396;2023-08-12T08:32:19;6.22;;;5.72;;
23159;SDS011;11748;50.844;4.396;2023-08-12T08:34:44;5.88;;;5.18;;
23159;SDS011;11748;50.844;4.396;2023-08-12T08:37:10;6.50;;;5.80;;
23159;SDS011;11748;50.844;4.396;2023-08-12T08:39:36;5.25;;;4.72;;
23159;SDS011;11748;50.844;4.396;2023-08-12T08:42:02;5.07;;;4.65;;
23159;SDS011;11748;50.844;4.396;2023-08-12T08:44:31;3.90;;;3.50;;
23159;SDS011;11748;50.844;4.396;2023-08-12T08:46:58;3.90;;;3.13;;
23159;SDS011;11748;50.844;4.396;2023-08-12T08:49:25;2.60;;;2.40;;
23159;SDS011;11748;50.844;4.396;2023-08-12T08:51:51;4.65;;;2.58;;
23159;SDS011;11748;50.844;4.396;2023-08-12T08:54:18;3.70;;;2.00;;
23159;SDS011;11748;50.844;4.396;2023-08-12T08:56:44;3.17;;;2.47;;
23159;SDS011;11748;50.844;4.396;2023-08-12T08:59:12;2.78;;;2.13;;
23159;SDS011;11748;50.844;4.396;2023-08-12T09:01:37;1.65;;;1.55;;
23159;SDS011;11748;50.844;4.396;2023-08-12T09:04:04;2.80;;;1.65;;
23159;SDS011;11748;50.844;4.396;2023-08-12T09:06:32;2.95;;;1.77;;
23159;SDS011;11748;50.844;4.396;2023-08-12T09:09:00;4.15;;;2.28;;
23159;SDS011;11748;50.844;4.396;2023-08-12T09:11:27;4.55;;;1.40;;
23159;SDS011;11748;50.844;4.396;2023-08-12T09:13:53;2.17;;;1.63;;
23159;SDS011;11748;50.844;4.396;2023-08-12T09:16:20;4.15;;;1.58;;
23159;SDS011;11748;50.844;4.396;2023-08-12T09:18:47;2.88;;;1.60;;
23159;SDS011;11748;50.844;4.396;2023-08-12T09:21:18;3.75;;;1.35;;
23159;SDS011;11748;50.844;4.396;2023-08-12T09:23:45;4.07;;;1.80;;
23159;SDS011;11748;50.844;4.396;2023-08-12T09:26:14;5.85;;;2.00;;
23159;SDS011;11748;50.844;4.396;2023-08-12T09:28:41;3.05;;;1.50;;
23159;SDS011;11748;50.844;4.396;2023-08-12T09:31:07;2.50;;;1.27;;
23159;SDS011;11748;50.844;4.396;2023-08-12T09:33:37;4.90;;;1.67;;
23159;SDS011;11748;50.844;4.396;2023-08-12T09:36:04;3.03;;;1.42;;
23159;SDS011;11748;50.844;4.396;2023-08-12T09:38:30;3.83;;;1.30;;
23159;SDS011;11748;50.844;4.396;2023-08-12T09:40:56;4.53;;;1.63;;
23159;SDS011;11748;50.844;4.396;2023-08-12T09:43:27;5.78;;;1.50;;
23159;SDS011;11748;50.844;4.396;2023-08-12T09:45:55;8.43;;;1.70;;
23159;SDS011;11748;50.844;4.396;2023-08-12T09:48:23;2.38;;;1.02;;
23159;SDS011;11748;50.844;4.396;2023-08-12T09:50:49;5.32;;;1.40;;
23159;SDS011;11748;50.844;4.396;2023-08-12T09:53:15;3.25;;;1.45;;
23159;SDS011;11748;50.844;4.396;2023-08-12T09:55:41;4.03;;;1.45;;
23159;SDS011;11748;50.844;4.396;2023-08-12T09:58:09;4.07;;;1.10;;
23159;SDS011;11748;50.844;4.396;2023-08-12T10:00:36;2.28;;;1.00;;
23159;SDS011;11748;50.844;4.396;2023-08-12T10:03:05;3.28;;;1.08;;
23159;SDS011;11748;50.844;4.396;2023-08-12T10:05:33;1.95;;;1.10;;
23159;SDS011;11748;50.844;4.396;2023-08-12T10:07:59;2.42;;;0.88;;
23159;SDS011;11748;50.844;4.396;2023-08-12T10:10:28;2.97;;;1.30;;
23159;SDS011;11748;50.844;4.396;2023-08-12T10:12:55;2.92;;;1.00;;
23159;SDS011;11748;50.844;4.396;2023-08-12T10:15:21;4.57;;;1.15;;
23159;SDS011;11748;50.844;4.396;2023-08-12T10:17:48;2.70;;;0.93;;
23159;SDS011;11748;50.844;4.396;2023-08-12T10:20:20;3.10;;;1.00;;
23159;SDS011;11748;50.844;4.396;2023-08-12T10:22:47;6.85;;;1.40;;
23159;SDS011;11748;50.844;4.396;2023-08-12T10:25:14;2.70;;;1.30;;
23159;SDS011;11748;50.844;4.396;2023-08-12T10:27:40;4.72;;;1.30;;
23159;SDS011;11748;50.844;4.396;2023-08-12T10:30:07;4.32;;;1.45;;
23159;SDS011;11748;50.844;4.396;2023-08-12T10:32:33;2.80;;;1.13;;
23159;SDS011;11748;50.844;4.396;2023-08-12T10:34:59;9.00;;;4.80;;
23159;SDS011;11748;50.844;4.396;2023-08-12T10:37:25;4.53;;;1.13;;
23159;SDS011;11748;50.844;4.396;2023-08-12T10:39:55;4.10;;;1.20;;
23159;SDS011;11748;50.844;4.396;2023-08-12T10:45:10;3.72;;;1.42;;
23159;SDS011;11748;50.844;4.396;2023-08-12T10:47:43;3.60;;;1.27;;
23159;SDS011;11748;50.844;4.396;2023-08-12T10:50:25;4.40;;;1.70;;
23159;SDS011;11748;50.844;4.396;2023-08-12T10:52:52;3.63;;;1.40;;
23159;SDS011;11748;50.844;4.396;2023-08-12T10:57:48;5.30;;;1.42;;
23159;SDS011;11748;50.844;4.396;2023-08-12T11:00:16;3.33;;;1.30;;
23159;SDS011;11748;50.844;4.396;2023-08-12T11:02:44;5.40;;;0.98;;
23159;SDS011;11748;50.844;4.396;2023-08-12T11:05:11;3.95;;;1.20;;
23159;SDS011;11748;50.844;4.396;2023-08-12T11:07:39;4.13;;;1.40;;
23159;SDS011;11748;50.844;4.396;2023-08-12T11:10:18;2.00;;;1.10;;
23159;SDS011;11748;50.844;4.396;2023-08-12T11:18:13;3.90;;;1.27;;
23159;SDS011;11748;50.844;4.396;2023-08-12T11:20:41;4.40;;;1.33;;
23159;SDS011;11748;50.844;4.396;2023-08-12T11:23:08;8.95;;;1.85;;
23159;SDS011;11748;50.844;4.396;2023-08-12T11:25:35;5.10;;;1.23;;
23159;SDS011;11748;50.844;4.396;2023-08-12T11:28:03;3.17;;;1.30;;
23159;SDS011;11748;50.844;4.396;2023-08-12T11:30:30;6.88;;;1.45;;
23159;SDS011;11748;50.844;4.396;2023-08-12T11:32:57;4.90;;;1.40;;
23159;SDS011;11748;50.844;4.396;2023-08-12T11:35:24;4.90;;;1.52;;
23159;SDS011;11748;50.844;4.396;2023-08-12T11:37:51;2.50;;;0.80;;
23159;SDS011;11748;50.844;4.396;2023-08-12T11:40:21;3.65;;;1.10;;
23159;SDS011;11748;50.844;4.396;2023-08-12T11:42:49;1.92;;;0.70;;
23159;SDS011;11748;50.844;4.396;2023-08-12T11:45:16;6.63;;;1.50;;
23159;SDS011;11748;50.844;4.396;2023-08-12T11:47:43;6.85;;;1.38;;
23159;SDS011;11748;50.844;4.396;2023-08-12T11:50:11;3.72;;;1.27;;
23159;SDS011;11748;50.844;4.396;2023-08-12T11:52:38;2.95;;;0.90;;
23159;SDS011;11748;50.844;4.396;2023-08-12T11:55:06;3.58;;;1.10;;
23159;SDS011;11748;50.844;4.396;2023-08-12T11:57:33;4.55;;;1.10;;
23159;SDS011;11748;50.844;4.396;2023-08-12T12:00:04;5.40;;;1.30;;
23159;SDS011;11748;50.844;4.396;2023-08-12T12:02:38;3.13;;;1.00;;
23159;SDS011;11748;50.844;4.396;2023-08-12T12:05:15;5.78;;;1.23;;
23159;SDS011;11748;50.844;4.396;2023-08-12T12:07:41;4.07;;;1.58;;
23159;SDS011;11748;50.844;4.396;2023-08-12T12:10:12;2.28;;;1.02;;
23159;SDS011;11748;50.844;4.396;2023-08-12T12:12:38;4.72;;;1.20;;
23159;SDS011;11748;50.844;4.396;2023-08-12T12:15:04;5.68;;;1.13;;
23159;SDS011;11748;50.844;4.396;2023-08-12T12:17:31;7.70;;;1.20;;
23159;SDS011;11748;50.844;4.396;2023-08-12T12:19:58;4.00;;;1.00;;
23159;SDS011;11748;50.844;4.396;2023-08-12T12:22:32;6.03;;;1.40;;
23159;SDS011;11748;50.844;4.396;2023-08-12T12:24:58;6.30;;;1.15;;
23159;SDS011;11748;50.844;4.396;2023-08-12T12:27:25;3.90;;;0.80;;
23159;SDS011;11748;50.844;4.396;2023-08-12T12:29:51;3.20;;;1.10;;
23159;SDS011;11748;50.844;4.396;2023-08-12T12:32:18;3.88;;;1.10;;
23159;SDS011;11748;50.844;4.396;2023-08-12T12:34:45;5.38;;;1.15;;
23159;SDS011;11748;50.844;4.396;2023-08-12T12:37:11;5.07;;;1.40;;
23159;SDS011;11748;50.844;4.396;2023-08-12T12:39:38;3.78;;;1.52;;
23159;SDS011;11748;50.844;4.396;2023-08-12T12:42:04;4.72;;;1.15;;
23159;SDS011;11748;50.844;4.396;2023-08-12T12:44:30;4.57;;;1.13;;
23159;SDS011;11748;50.844;4.396;2023-08-12T12:46:56;7.43;;;1.20;;
23159;SDS011;11748;50.844;4.396;2023-08-12T12:49:22;6.05;;;1.25;;
23159;SDS011;11748;50.844;4.396;2023-08-12T12:51:47;4.70;;;1.30;;
23159;SDS011;11748;50.844;4.396;2023-08-12T12:54:13;3.85;;;1.30;;
23159;SDS011;11748;50.844;4.396;2023-08-12T12:56:39;4.75;;;1.70;;
23159;SDS011;11748;50.844;4.396;2023-08-12T12:59:05;5.80;;;1.42;;
23159;SDS011;11748;50.844;4.396;2023-08-12T13:01:30;4.72;;;1.50;;
23159;SDS011;11748;50.844;4.396;2023-08-12T13:03:56;4.70;;;1.35;;
23159;SDS011;11748;50.844;4.396;2023-08-12T13:06:23;3.83;;;1.77;;
23159;SDS011;11748;50.844;4.396;2023-08-12T13:08:49;3.83;;;2.10;;
23159;SDS011;11748;50.844;4.396;2023-08-12T13:11:15;4.68;;;1.88;;
23159;SDS011;11748;50.844;4.396;2023-08-12T13:13:42;4.13;;;1.60;;
23159;SDS011;11748;50.844;4.396;2023-08-12T13:16:07;3.88;;;1.40;;
23159;SDS011;11748;50.844;4.396;2023-08-12T13:18:34;4.00;;;1.30;;
23159;SDS011;11748;50.844;4.396;2023-08-12T13:20:59;4.22;;;1.20;;
23159;SDS011;11748;50.844;4.396;2023-08-12T13:23:26;7.10;;;1.42;;
23159;SDS011;11748;50.844;4.396;2023-08-12T13:25:52;3.70;;;1.30;;
23159;SDS011;11748;50.844;4.396;2023-08-12T13:28:18;3.97;;;1.00;;
23159;SDS011;11748;50.844;4.396;2023-08-12T13:30:44;5.05;;;1.15;;
23159;SDS011;11748;50.844;4.396;2023-08-12T13:33:10;3.45;;;1.30;;
23159;SDS011;11748;50.844;4.396;2023-08-12T13:35:37;4.70;;;1.38;;
23159;SDS011;11748;50.844;4.396;2023-08-12T13:38:02;2.72;;;1.10;;
23159;SDS011;11748;50.844;4.396;2023-08-12T13:40:28;3.97;;;1.30;;
23159;SDS011;11748;50.844;4.396;2023-08-12T13:42:54;4.40;;;1.15;;
23159;SDS011;11748;50.844;4.396;2023-08-12T13:45:19;3.38;;;0.80;;
23159;SDS011;11748;50.844;4.396;2023-08-12T13:47:45;4.57;;;1.33;;
23159;SDS011;11748;50.844;4.396;2023-08-12T13:50:11;3.45;;;0.95;;
23159;SDS011;11748;50.844;4.396;2023-08-12T13:52:39;6.95;;;1.30;;
23159;SDS011;11748;50.844;4.396;2023-08-12T13:55:05;5.05;;;1.23;;
23159;SDS011;11748;50.844;4.396;2023-08-12T13:57:31;2.63;;;1.10;;
23159;SDS011;11748;50.844;4.396;2023-08-12T13:59:57;5.35;;;1.35;;
23159;SDS011;11748;50.844;4.396;2023-08-12T14:02:23;3.78;;;1.17;;
23159;SDS011;11748;50.844;4.396;2023-08-12T14:04:49;5.72;;;1.38;;
23159;SDS011;11748;50.844;4.396;2023-08-12T14:07:14;5.88;;;1.17;;
23159;SDS011;11748;50.844;4.396;2023-08-12T14:09:41;3.85;;;1.23;;
23159;SDS011;11748;50.844;4.396;2023-08-12T14:12:07;4.07;;;1.10;;
23159;SDS011;11748;50.844;4.396;2023-08-12T14:14:32;5.05;;;1.48;;
23159;SDS011;11748;50.844;4.396;2023-08-12T14:16:58;4.70;;;0.80;;
23159;SDS011;11748;50.844;4.396;2023-08-12T14:19:24;5.25;;;1.15;;
23159;SDS011;11748;50.844;4.396;2023-08-12T14:21:49;5.93;;;1.40;;
23159;SDS011;11748;50.844;4.396;2023-08-12T14:24:15;3.38;;;1.00;;
23159;SDS011;11748;50.844;4.396;2023-08-12T14:26:41;3.72;;;1.42;;
23159;SDS011;11748;50.844;4.396;2023-08-12T14:29:07;4.85;;;1.48;;
23159;SDS011;11748;50.844;4.396;2023-08-12T14:31:33;2.30;;;0.90;;
23159;SDS011;11748;50.844;4.396;2023-08-12T14:33:59;6.40;;;1.30;;
23159;SDS011;11748;50.844;4.396;2023-08-12T14:36:27;6.07;;;1.45;;
23159;SDS011;11748;50.844;4.396;2023-08-12T14:38:53;3.50;;;1.30;;
23159;SDS011;11748;50.844;4.396;2023-08-12T14:41:18;4.85;;;1.40;;
23159;SDS011;11748;50.844;4.396;2023-08-12T14:43:44;3.45;;;1.35;;
23159;SDS011;11748;50.844;4.396;2023-08-12T14:46:10;5.88;;;1.67;;
23159;SDS011;11748;50.844;4.396;2023-08-12T14:48:36;3.72;;;1.15;;
23159;SDS011;11748;50.844;4.396;2023-08-12T14:51:02;3.80;;;1.15;;
23159;SDS011;11748;50.844;4.396;2023-08-12T14:53:28;3.15;;;1.10;;
23159;SDS011;11748;50.844;4.396;2023-08-12T14:55:54;4.13;;;1.35;;
23159;SDS011;11748;50.844;4.396;2023-08-12T14:58:19;4.15;;;1.50;;
23159;SDS011;11748;50.844;4.396;2023-08-12T15:00:48;4.50;;;1.20;;
23159;SDS011;11748;50.844;4.396;2023-08-12T15:03:14;2.63;;;0.90;;